createdAt,value
2023-03-06T00:18:04.378Z,80.57
2023-03-06T00:47:00.561Z,80.6
2023-03-06T01:16:12.624Z,81.35
2023-03-06T01:44:35.323Z,82.31
2023-03-06T02:13:32.048Z,83.93
2023-03-06T02:42:32.598Z,84.47
2023-03-06T03:11:28.223Z,86.2
2023-03-06T03:40:34.605Z,85.31
2023-03-06T04:09:36.896Z,84.6
2023-03-06T04:38:39.880Z,85.43
2023-03-06T05:06:56.701Z,87.37
2023-03-06T05:36:06.027Z,87.18
2023-03-06T06:04:24.965Z,86.57
2023-03-06T06:32:38.720Z,86.31
2023-03-06T07:01:29.957Z,86.66
2023-03-06T07:30:27.334Z,83.62
2023-03-06T07:59:25.224Z,82.29
2023-03-06T08:28:31.250Z,79.82
2023-03-06T08:57:38.506Z,75.75
2023-03-06T09:26:51.570Z,74.58
2023-03-06T09:54:59.005Z,72.12
2023-03-06T10:23:58.274Z,70.21
2023-03-06T10:52:02.540Z,68.83
2023-03-06T11:20:50.815Z,66.4
2023-03-06T11:48:51.473Z,63.02
2023-03-06T12:16:54.533Z,64.71
2023-03-06T12:45:11.059Z,63.02
2023-03-06T13:13:23.240Z,67.46
2023-03-06T13:41:43.996Z,72.08
2023-03-06T14:10:00.773Z,69.7
2023-03-06T14:38:28.101Z,66.83
2023-03-06T15:06:48.322Z,65.22
2023-03-06T15:34:55.544Z,65.23
2023-03-06T16:03:23.400Z,68.26
2023-03-06T16:31:45.043Z,69.12
2023-03-06T17:00:07.737Z,70.46
2023-03-06T17:28:16.632Z,78.96
2023-03-06T17:56:36.884Z,80.85
2023-03-06T18:24:53.829Z,79.29
2023-03-06T18:53:13.608Z,80.83
2023-03-06T19:21:31.907Z,80.78
2023-03-06T19:50:20.094Z,79.85
2023-03-06T20:19:11.322Z,74.98
2023-03-06T20:48:21.352Z,78.53
2023-03-06T21:17:14.292Z,74.15
2023-03-06T21:45:55.857Z,73.63
2023-03-06T22:14:44.046Z,73.75
2023-03-06T22:43:40.375Z,74.51
2023-03-06T23:12:36.528Z,74.84
2023-03-06T23:40:43.910Z,76.27
